sensor_id;sensor_type;location;lat;lon;timestamp;P1;durP1;ratioP1;P2;durP2;ratioP2
68987;SDS011;56038;46.080;11.116;2023-02-05T00:00:22;39.38;;;20.10;;
68987;SDS011;56038;46.080;11.116;2023-02-05T00:05:26;36.05;;;18.67;;
68987;SDS011;56038;46.080;11.116;2023-02-05T00:10:34;44.50;;;20.75;;
68987;SDS011;56038;46.080;11.116;2023-02-05T00:15:38;38.50;;;19.55;;
68987;SDS011;56038;46.080;11.116;2023-02-05T00:20:40;33.88;;;17.25;;
68987;SDS011;56038;46.080;11.116;2023-02-05T00:25:44;38.25;;;18.05;;
68987;SDS011;56038;46.080;11.116;2023-02-05T00:30:45;29.33;;;14.20;;
68987;SDS011;56038;46.080;11.116;2023-02-05T00:35:47;33.35;;;16.92;;
68987;SDS011;56038;46.080;11.116;2023-02-05T00:40:50;42.28;;;21.08;;
68987;SDS011;56038;46.080;11.116;2023-02-05T00:45:52;41.65;;;20.17;;
68987;SDS011;56038;46.080;11.116;2023-02-05T00:50:54;32.97;;;15.40;;
68987;SDS011;56038;46.080;11.116;2023-02-05T00:55:57;40.58;;;19.75;;
68987;SDS011;56038;46.080;11.116;2023-02-05T01:00:59;39.97;;;19.02;;
68987;SDS011;56038;46.080;11.116;2023-02-05T01:06:01;34.97;;;17.00;;
68987;SDS011;56038;46.080;11.116;2023-02-05T01:11:06;27.40;;;13.05;;
68987;SDS011;56038;46.080;11.116;2023-02-05T01:16:10;36.63;;;18.25;;
68987;SDS011;56038;46.080;11.116;2023-02-05T01:21:12;33.83;;;16.33;;
68987;SDS011;56038;46.080;11.116;2023-02-05T01:26:15;28.63;;;15.15;;
68987;SDS011;56038;46.080;11.116;2023-02-05T01:31:17;37.65;;;18.98;;
68987;SDS011;56038;46.080;11.116;2023-02-05T01:36:19;24.95;;;12.50;;
68987;SDS011;56038;46.080;11.116;2023-02-05T01:41:22;22.33;;;11.88;;
68987;SDS011;56038;46.080;11.116;2023-02-05T01:46:25;25.33;;;12.73;;
68987;SDS011;56038;46.080;11.116;2023-02-05T01:51:31;23.40;;;12.05;;
68987;SDS011;56038;46.080;11.116;2023-02-05T01:56:38;37.63;;;16.00;;
68987;SDS011;56038;46.080;11.116;2023-02-05T02:01:43;37.67;;;18.05;;
68987;SDS011;56038;46.080;11.116;2023-02-05T02:06:45;27.98;;;15.70;;
68987;SDS011;56038;46.080;11.116;2023-02-05T02:11:48;33.88;;;17.15;;
68987;SDS011;56038;46.080;11.116;2023-02-05T02:16:50;28.20;;;14.48;;
68987;SDS011;56038;46.080;11.116;2023-02-05T02:22:01;28.67;;;15.02;;
68987;SDS011;56038;46.080;11.116;2023-02-05T02:32:49;24.40;;;12.93;;
68987;SDS011;56038;46.080;11.116;2023-02-05T02:37:59;24.00;;;13.05;;
68987;SDS011;56038;46.080;11.116;2023-02-05T02:43:09;25.30;;;12.98;;
68987;SDS011;56038;46.080;11.116;2023-02-05T02:48:14;26.95;;;13.85;;
68987;SDS011;56038;46.080;11.116;2023-02-05T02:53:23;24.63;;;11.95;;
68987;SDS011;56038;46.080;11.116;2023-02-05T02:58:31;27.08;;;12.85;;
68987;SDS011;56038;46.080;11.116;2023-02-05T03:03:37;20.75;;;11.23;;
68987;SDS011;56038;46.080;11.116;2023-02-05T03:08:44;30.08;;;13.98;;
68987;SDS011;56038;46.080;11.116;2023-02-05T03:13:52;17.65;;;9.60;;
68987;SDS011;56038;46.080;11.116;2023-02-05T03:18:55;23.08;;;10.07;;
68987;SDS011;56038;46.080;11.116;2023-02-05T03:23:57;16.65;;;7.47;;
68987;SDS011;56038;46.080;11.116;2023-02-05T03:29:01;22.02;;;11.05;;
68987;SDS011;56038;46.080;11.116;2023-02-05T03:34:07;22.35;;;10.25;;
68987;SDS011;56038;46.080;11.116;2023-02-05T03:39:22;18.05;;;10.57;;
68987;SDS011;56038;46.080;11.116;2023-02-05T03:44:41;21.73;;;12.05;;
68987;SDS011;56038;46.080;11.116;2023-02-05T03:50:03;23.40;;;10.25;;
68987;SDS011;56038;46.080;11.116;2023-02-05T03:55:12;21.08;;;10.32;;
68987;SDS011;56038;46.080;11.116;2023-02-05T04:05:22;23.23;;;10.93;;
68987;SDS011;56038;46.080;11.116;2023-02-05T04:10:29;20.35;;;9.93;;
68987;SDS011;56038;46.080;11.116;2023-02-05T04:15:32;18.48;;;8.73;;
68987;SDS011;56038;46.080;11.116;2023-02-05T04:20:34;21.52;;;10.57;;
68987;SDS011;56038;46.080;11.116;2023-02-05T04:25:36;20.80;;;9.48;;
68987;SDS011;56038;46.080;11.116;2023-02-05T04:30:39;22.17;;;10.00;;
68987;SDS011;56038;46.080;11.116;2023-02-05T04:35:41;18.38;;;8.93;;
68987;SDS011;56038;46.080;11.116;2023-02-05T04:40:43;18.92;;;8.80;;
68987;SDS011;56038;46.080;11.116;2023-02-05T04:45:47;19.45;;;8.52;;
68987;SDS011;56038;46.080;11.116;2023-02-05T04:50:48;15.52;;;7.75;;
68987;SDS011;56038;46.080;11.116;2023-02-05T04:55:50;19.42;;;9.27;;
68987;SDS011;56038;46.080;11.116;2023-02-05T05:00:55;16.10;;;8.57;;
68987;SDS011;56038;46.080;11.116;2023-02-05T05:06:01;11.60;;;6.50;;
68987;SDS011;56038;46.080;11.116;2023-02-05T05:11:07;11.80;;;6.03;;
68987;SDS011;56038;46.080;11.116;2023-02-05T05:16:11;7.38;;;4.22;;
68987;SDS011;56038;46.080;11.116;2023-02-05T05:21:13;8.07;;;4.65;;
68987;SDS011;56038;46.080;11.116;2023-02-05T05:26:15;6.85;;;4.20;;
68987;SDS011;56038;46.080;11.116;2023-02-05T05:31:18;6.75;;;4.68;;
68987;SDS011;56038;46.080;11.116;2023-02-05T05:36:20;6.57;;;4.10;;
68987;SDS011;56038;46.080;11.116;2023-02-05T05:41:22;10.02;;;4.28;;
68987;SDS011;56038;46.080;11.116;2023-02-05T05:46:43;8.70;;;4.10;;
68987;SDS011;56038;46.080;11.116;2023-02-05T05:51:45;6.60;;;3.85;;
68987;SDS011;56038;46.080;11.116;2023-02-05T05:56:47;5.57;;;3.55;;
68987;SDS011;56038;46.080;11.116;2023-02-05T06:01:50;6.63;;;4.00;;
68987;SDS011;56038;46.080;11.116;2023-02-05T06:06:52;7.88;;;4.35;;
68987;SDS011;56038;46.080;11.116;2023-02-05T06:11:54;9.27;;;4.97;;
68987;SDS011;56038;46.080;11.116;2023-02-05T06:16:57;6.55;;;4.32;;
68987;SDS011;56038;46.080;11.116;2023-02-05T06:21:59;7.10;;;4.43;;
68987;SDS011;56038;46.080;11.116;2023-02-05T06:27:00;7.85;;;3.90;;
68987;SDS011;56038;46.080;11.116;2023-02-05T06:32:04;8.98;;;4.85;;
68987;SDS011;56038;46.080;11.116;2023-02-05T06:37:05;10.38;;;5.95;;
68987;SDS011;56038;46.080;11.116;2023-02-05T06:42:07;10.93;;;5.10;;
68987;SDS011;56038;46.080;11.116;2023-02-05T06:47:10;9.52;;;5.00;;
68987;SDS011;56038;46.080;11.116;2023-02-05T06:52:12;8.15;;;4.85;;
68987;SDS011;56038;46.080;11.116;2023-02-05T06:57:14;11.27;;;7.07;;
68987;SDS011;56038;46.080;11.116;2023-02-05T07:02:17;9.07;;;5.40;;
68987;SDS011;56038;46.080;11.116;2023-02-05T07:07:19;10.20;;;5.43;;
68987;SDS011;56038;46.080;11.116;2023-02-05T07:12:20;9.23;;;6.18;;
68987;SDS011;56038;46.080;11.116;2023-02-05T07:17:24;9.13;;;5.35;;
68987;SDS011;56038;46.080;11.116;2023-02-05T07:22:25;13.95;;;6.88;;
68987;SDS011;56038;46.080;11.116;2023-02-05T07:27:27;11.98;;;6.85;;
68987;SDS011;56038;46.080;11.116;2023-02-05T07:32:31;10.30;;;6.57;;
68987;SDS011;56038;46.080;11.116;2023-02-05T07:37:33;10.45;;;5.68;;
68987;SDS011;56038;46.080;11.116;2023-02-05T07:42:36;10.73;;;6.60;;
68987;SDS011;56038;46.080;11.116;2023-02-05T07:47:39;10.23;;;5.32;;
68987;SDS011;56038;46.080;11.116;2023-02-05T07:52:41;9.90;;;6.15;;
68987;SDS011;56038;46.080;11.116;2023-02-05T07:57:43;11.75;;;6.47;;
68987;SDS011;56038;46.080;11.116;2023-02-05T08:02:47;11.65;;;6.53;;
68987;SDS011;56038;46.080;11.116;2023-02-05T08:07:49;9.07;;;5.78;;
68987;SDS011;56038;46.080;11.116;2023-02-05T08:12:50;9.10;;;5.68;;
68987;SDS011;56038;46.080;11.116;2023-02-05T08:17:53;10.43;;;6.07;;
68987;SDS011;56038;46.080;11.116;2023-02-05T08:22:55;8.95;;;5.80;;
68987;SDS011;56038;46.080;11.116;2023-02-05T08:27:57;8.73;;;5.20;;
68987;SDS011;56038;46.080;11.116;2023-02-05T08:33:00;10.40;;;5.90;;
68987;SDS011;56038;46.080;11.116;2023-02-05T08:38:02;12.43;;;7.18;;
68987;SDS011;56038;46.080;11.116;2023-02-05T08:43:04;20.42;;;11.50;;
68987;SDS011;56038;46.080;11.116;2023-02-05T08:48:08;14.13;;;8.18;;
68987;SDS011;56038;46.080;11.116;2023-02-05T08:53:10;12.55;;;7.30;;
68987;SDS011;56038;46.080;11.116;2023-02-05T08:58:12;19.55;;;9.98;;
68987;SDS011;56038;46.080;11.116;2023-02-05T09:03:15;19.45;;;10.73;;
68987;SDS011;56038;46.080;11.116;2023-02-05T09:08:17;17.58;;;9.88;;
68987;SDS011;56038;46.080;11.116;2023-02-05T09:13:19;20.42;;;10.10;;
68987;SDS011;56038;46.080;11.116;2023-02-05T09:18:22;21.50;;;9.68;;
68987;SDS011;56038;46.080;11.116;2023-02-05T09:23:24;17.90;;;9.80;;
68987;SDS011;56038;46.080;11.116;2023-02-05T09:28:26;19.30;;;9.07;;
68987;SDS011;56038;46.080;11.116;2023-02-05T09:33:29;16.00;;;8.88;;
68987;SDS011;56038;46.080;11.116;2023-02-05T09:38:31;15.25;;;7.72;;
68987;SDS011;56038;46.080;11.116;2023-02-05T09:43:37;13.13;;;6.95;;
68987;SDS011;56038;46.080;11.116;2023-02-05T09:48:51;20.70;;;10.27;;
68987;SDS011;56038;46.080;11.116;2023-02-05T09:53:58;12.13;;;7.53;;
68987;SDS011;56038;46.080;11.116;2023-02-05T09:59:06;12.25;;;6.80;;
68987;SDS011;56038;46.080;11.116;2023-02-05T10:04:15;17.40;;;7.22;;
68987;SDS011;56038;46.080;11.116;2023-02-05T10:09:25;10.80;;;6.22;;
68987;SDS011;56038;46.080;11.116;2023-02-05T10:14:42;8.65;;;5.75;;
68987;SDS011;56038;46.080;11.116;2023-02-05T10:19:58;8.48;;;5.53;;
68987;SDS011;56038;46.080;11.116;2023-02-05T10:25:20;6.30;;;4.18;;
68987;SDS011;56038;46.080;11.116;2023-02-05T10:30:35;11.57;;;6.07;;
68987;SDS011;56038;46.080;11.116;2023-02-05T10:35:48;9.48;;;3.92;;
68987;SDS011;56038;46.080;11.116;2023-02-05T10:40:57;4.18;;;2.28;;
68987;SDS011;56038;46.080;11.116;2023-02-05T10:46:08;8.50;;;3.30;;
68987;SDS011;56038;46.080;11.116;2023-02-05T10:51:15;7.38;;;3.35;;
68987;SDS011;56038;46.080;11.116;2023-02-05T10:56:21;8.70;;;2.92;;
68987;SDS011;56038;46.080;11.116;2023-02-05T11:01:23;6.25;;;3.22;;
68987;SDS011;56038;46.080;11.116;2023-02-05T11:06:31;8.65;;;3.58;;
68987;SDS011;56038;46.080;11.116;2023-02-05T11:11:40;5.93;;;3.40;;
68987;SDS011;56038;46.080;11.116;2023-02-05T11:16:43;6.38;;;3.00;;
68987;SDS011;56038;46.080;11.116;2023-02-05T11:21:49;7.43;;;3.33;;
68987;SDS011;56038;46.080;11.116;2023-02-05T11:32:35;6.67;;;3.00;;
68987;SDS011;56038;46.080;11.116;2023-02-05T11:37:39;6.82;;;3.15;;
68987;SDS011;56038;46.080;11.116;2023-02-05T11:42:41;5.60;;;3.17;;
68987;SDS011;56038;46.080;11.116;2023-02-05T11:47:49;5.47;;;3.38;;
68987;SDS011;56038;46.080;11.116;2023-02-05T11:52:53;6.97;;;3.55;;
68987;SDS011;56038;46.080;11.116;2023-02-05T11:57:56;8.25;;;3.17;;
68987;SDS011;56038;46.080;11.116;2023-02-05T12:03:01;7.05;;;3.53;;
68987;SDS011;56038;46.080;11.116;2023-02-05T12:08:06;8.23;;;3.60;;
68987;SDS011;56038;46.080;11.116;2023-02-05T12:13:24;9.30;;;4.18;;
68987;SDS011;56038;46.080;11.116;2023-02-05T12:18:36;7.50;;;3.92;;
68987;SDS011;56038;46.080;11.116;2023-02-05T12:24:01;5.40;;;3.47;;
68987;SDS011;56038;46.080;11.116;2023-02-05T12:29:18;9.97;;;6.20;;
68987;SDS011;56038;46.080;11.116;2023-02-05T12:34:35;7.82;;;4.90;;
68987;SDS011;56038;46.080;11.116;2023-02-05T12:39:48;7.72;;;4.15;;
68987;SDS011;56038;46.080;11.116;2023-02-05T12:45:05;6.97;;;4.30;;
68987;SDS011;56038;46.080;11.116;2023-02-05T12:50:25;7.43;;;3.55;;
68987;SDS011;56038;46.080;11.116;2023-02-05T12:55:47;7.20;;;3.63;;
68987;SDS011;56038;46.080;11.116;2023-02-05T13:01:02;7.78;;;3.47;;
68987;SDS011;56038;46.080;11.116;2023-02-05T13:06:09;7.45;;;3.55;;
68987;SDS011;56038;46.080;11.116;2023-02-05T13:11:16;8.02;;;3.45;;
68987;SDS011;56038;46.080;11.116;2023-02-05T13:16:25;7.15;;;3.17;;
68987;SDS011;56038;46.080;11.116;2023-02-05T13:21:36;7.75;;;3.30;;
68987;SDS011;56038;46.080;11.116;2023-02-05T13:26:57;7.70;;;3.17;;
68987;SDS011;56038;46.080;11.116;2023-02-05T13:32:17;6.80;;;3.00;;
68987;SDS011;56038;46.080;11.116;2023-02-05T13:37:28;5.07;;;2.33;;
68987;SDS011;56038;46.080;11.116;2023-02-05T13:42:48;5.68;;;2.45;;
68987;SDS011;56038;46.080;11.116;2023-02-05T13:48:36;8.65;;;3.55;;
68987;SDS011;56038;46.080;11.116;2023-02-05T13:54:01;4.47;;;2.30;;
68987;SDS011;56038;46.080;11.116;2023-02-05T13:59:21;4.22;;;1.83;;
68987;SDS011;56038;46.080;11.116;2023-02-05T14:04:29;4.22;;;2.05;;
68987;SDS011;56038;46.080;11.116;2023-02-05T14:09:39;3.25;;;1.75;;
68987;SDS011;56038;46.080;11.116;2023-02-05T14:14:44;5.30;;;1.80;;
68987;SDS011;56038;46.080;11.116;2023-02-05T14:20:30;4.38;;;2.13;;
68987;SDS011;56038;46.080;11.116;2023-02-05T14:31:11;4.07;;;2.28;;
68987;SDS011;56038;46.080;11.116;2023-02-05T14:41:49;7.53;;;2.45;;
68987;SDS011;56038;46.080;11.116;2023-02-05T14:46:57;4.55;;;2.22;;
68987;SDS011;56038;46.080;11.116;2023-02-05T14:52:03;8.23;;;1.90;;
68987;SDS011;56038;46.080;11.116;2023-02-05T14:57:08;6.47;;;2.13;;
68987;SDS011;56038;46.080;11.116;2023-02-05T15:07:50;6.15;;;2.08;;
68987;SDS011;56038;46.080;11.116;2023-02-05T15:13:08;6.10;;;2.13;;
68987;SDS011;56038;46.080;11.116;2023-02-05T15:18:14;5.75;;;2.17;;
68987;SDS011;56038;46.080;11.116;2023-02-05T15:23:24;3.88;;;2.25;;
68987;SDS011;56038;46.080;11.116;2023-02-05T15:28:34;4.28;;;2.00;;
68987;SDS011;56038;46.080;11.116;2023-02-05T15:33:44;4.47;;;2.40;;
68987;SDS011;56038;46.080;11.116;2023-02-05T15:38:52;3.85;;;2.03;;
68987;SDS011;56038;46.080;11.116;2023-02-05T15:44:03;4.78;;;2.35;;
68987;SDS011;56038;46.080;11.116;2023-02-05T15:49:06;4.75;;;2.38;;
68987;SDS011;56038;46.080;11.116;2023-02-05T15:54:12;3.90;;;2.20;;
68987;SDS011;56038;46.080;11.116;2023-02-05T15:59:20;2.70;;;2.17;;
68987;SDS011;56038;46.080;11.116;2023-02-05T16:04:27;3.35;;;2.03;;
68987;SDS011;56038;46.080;11.116;2023-02-05T16:09:33;3.33;;;2.10;;
68987;SDS011;56038;46.080;11.116;2023-02-05T16:14:37;3.15;;;1.70;;
68987;SDS011;56038;46.080;11.116;2023-02-05T16:19:41;4.03;;;2.28;;
68987;SDS011;56038;46.080;11.116;2023-02-05T16:24:47;2.67;;;2.00;;
68987;SDS011;56038;46.080;11.116;2023-02-05T16:29:51;5.60;;;2.30;;
68987;SDS011;56038;46.080;11.116;2023-02-05T16:40:02;2.75;;;1.80;;
68987;SDS011;56038;46.080;11.116;2023-02-05T16:45:16;3.17;;;1.55;;
68987;SDS011;56038;46.080;11.116;2023-02-05T16:50:33;4.10;;;2.30;;
68987;SDS011;56038;46.080;11.116;2023-02-05T16:55:38;12.10;;;5.13;;
68987;SDS011;56038;46.080;11.116;2023-02-05T17:00:41;4.22;;;3.05;;
68987;SDS011;56038;46.080;11.116;2023-02-05T17:05:54;4.15;;;2.30;;
68987;SDS011;56038;46.080;11.116;2023-02-05T17:10:59;6.85;;;2.33;;
68987;SDS011;56038;46.080;11.116;2023-02-05T17:21:30;5.20;;;2.80;;
68987;SDS011;56038;46.080;11.116;2023-02-05T17:26:35;4.47;;;2.53;;
68987;SDS011;56038;46.080;11.116;2023-02-05T17:31:40;7.32;;;3.60;;
68987;SDS011;56038;46.080;11.116;2023-02-05T17:36:43;6.75;;;3.47;;
68987;SDS011;56038;46.080;11.116;2023-02-05T17:41:45;4.18;;;2.65;;
68987;SDS011;56038;46.080;11.116;2023-02-05T17:47:07;3.42;;;2.58;;
68987;SDS011;56038;46.080;11.116;2023-02-05T17:52:11;3.17;;;2.67;;
68987;SDS011;56038;46.080;11.116;2023-02-05T17:57:14;3.03;;;2.67;;
68987;SDS011;56038;46.080;11.116;2023-02-05T18:02:17;5.82;;;2.85;;
68987;SDS011;56038;46.080;11.116;2023-02-05T18:07:21;6.40;;;3.63;;
68987;SDS011;56038;46.080;11.116;2023-02-05T18:12:29;5.20;;;4.25;;
68987;SDS011;56038;46.080;11.116;2023-02-05T18:17:31;6.82;;;3.38;;
68987;SDS011;56038;46.080;11.116;2023-02-05T18:22:35;3.53;;;2.90;;
68987;SDS011;56038;46.080;11.116;2023-02-05T18:27:36;8.45;;;3.88;;
68987;SDS011;56038;46.080;11.116;2023-02-05T18:32:38;3.75;;;2.92;;
68987;SDS011;56038;46.080;11.116;2023-02-05T18:37:42;8.43;;;4.50;;
68987;SDS011;56038;46.080;11.116;2023-02-05T18:42:44;7.85;;;4.32;;
68987;SDS011;56038;46.080;11.116;2023-02-05T18:47:46;6.50;;;4.28;;
68987;SDS011;56038;46.080;11.116;2023-02-05T18:52:49;5.30;;;3.90;;
68987;SDS011;56038;46.080;11.116;2023-02-05T18:57:51;5.93;;;4.65;;
68987;SDS011;56038;46.080;11.116;2023-02-05T19:02:53;7.07;;;4.65;;
68987;SDS011;56038;46.080;11.116;2023-02-05T19:07:56;5.18;;;3.97;;
68987;SDS011;56038;46.080;11.116;2023-02-05T19:12:58;5.68;;;3.50;;
68987;SDS011;56038;46.080;11.116;2023-02-05T19:18:00;5.88;;;4.10;;
68987;SDS011;56038;46.080;11.116;2023-02-05T19:23:03;7.00;;;3.88;;
68987;SDS011;56038;46.080;11.116;2023-02-05T19:28:05;6.32;;;4.18;;
68987;SDS011;56038;46.080;11.116;2023-02-05T19:33:08;9.82;;;4.25;;
68987;SDS011;56038;46.080;11.116;2023-02-05T19:38:11;6.03;;;4.25;;
68987;SDS011;56038;46.080;11.116;2023-02-05T19:43:13;5.75;;;3.25;;
68987;SDS011;56038;46.080;11.116;2023-02-05T19:48:17;7.55;;;4.03;;
68987;SDS011;56038;46.080;11.116;2023-02-05T19:53:20;6.00;;;4.78;;
68987;SDS011;56038;46.080;11.116;2023-02-05T19:58:22;9.35;;;5.50;;
68987;SDS011;56038;46.080;11.116;2023-02-05T20:03:26;7.30;;;5.40;;
68987;SDS011;56038;46.080;11.116;2023-02-05T20:08:30;7.72;;;5.30;;
68987;SDS011;56038;46.080;11.116;2023-02-05T20:13:33;7.88;;;5.72;;
68987;SDS011;56038;46.080;11.116;2023-02-05T20:18:36;8.77;;;5.35;;
68987;SDS011;56038;46.080;11.116;2023-02-05T20:23:40;8.80;;;5.78;;
68987;SDS011;56038;46.080;11.116;2023-02-05T20:28:44;7.32;;;4.40;;
68987;SDS011;56038;46.080;11.116;2023-02-05T20:34:05;6.97;;;5.20;;
68987;SDS011;56038;46.080;11.116;2023-02-05T20:39:19;9.30;;;6.53;;
68987;SDS011;56038;46.080;11.116;2023-02-05T20:44:22;12.47;;;6.73;;
68987;SDS011;56038;46.080;11.116;2023-02-05T20:49:25;10.43;;;6.50;;
68987;SDS011;56038;46.080;11.116;2023-02-05T20:54:36;10.00;;;7.00;;
68987;SDS011;56038;46.080;11.116;2023-02-05T20:59:38;8.48;;;6.28;;
68987;SDS011;56038;46.080;11.116;2023-02-05T21:04:40;9.45;;;5.82;;
68987;SDS011;56038;46.080;11.116;2023-02-05T21:09:43;8.48;;;5.93;;
68987;SDS011;56038;46.080;11.116;2023-02-05T21:14:45;9.25;;;5.82;;
68987;SDS011;56038;46.080;11.116;2023-02-05T21:19:47;9.25;;;6.18;;
68987;SDS011;56038;46.080;11.116;2023-02-05T21:24:51;16.60;;;9.50;;
68987;SDS011;56038;46.080;11.116;2023-02-05T21:29:52;9.65;;;5.88;;
68987;SDS011;56038;46.080;11.116;2023-02-05T21:34:54;7.20;;;5.68;;
68987;SDS011;56038;46.080;11.116;2023-02-05T21:39:57;8.18;;;5.20;;
68987;SDS011;56038;46.080;11.116;2023-02-05T21:44:59;9.32;;;5.38;;
68987;SDS011;56038;46.080;11.116;2023-02-05T21:50:01;9.50;;;5.70;;
68987;SDS011;56038;46.080;11.116;2023-02-05T21:55:04;9.27;;;5.78;;
68987;SDS011;56038;46.080;11.116;2023-02-05T22:00:07;7.45;;;5.72;;
68987;SDS011;56038;46.080;11.116;2023-02-05T22:05:10;10.30;;;5.80;;
68987;SDS011;56038;46.080;11.116;2023-02-05T22:10:13;8.43;;;5.63;;
68987;SDS011;56038;46.080;11.116;2023-02-05T22:15:16;7.70;;;5.50;;
68987;SDS011;56038;46.080;11.116;2023-02-05T22:20:18;11.38;;;5.78;;
68987;SDS011;56038;46.080;11.116;2023-02-05T22:25:21;8.60;;;6.05;;
68987;SDS011;56038;46.080;11.116;2023-02-05T22:30:22;10.60;;;7.18;;
68987;SDS011;56038;46.080;11.116;2023-02-05T22:35:24;11.18;;;6.28;;
68987;SDS011;56038;46.080;11.116;2023-02-05T22:40:27;7.35;;;5.55;;
68987;SDS011;56038;46.080;11.116;2023-02-05T22:45:29;7.60;;;5.22;;
68987;SDS011;56038;46.080;11.116;2023-02-05T22:50:34;7.32;;;5.70;;
68987;SDS011;56038;46.080;11.116;2023-02-05T22:55:38;8.35;;;5.70;;
68987;SDS011;56038;46.080;11.116;2023-02-05T23:00:41;9.50;;;6.07;;
68987;SDS011;56038;46.080;11.116;2023-02-05T23:05:43;9.45;;;5.53;;
68987;SDS011;56038;46.080;11.116;2023-02-05T23:10:46;6.93;;;5.28;;
68987;SDS011;56038;46.080;11.116;2023-02-05T23:15:48;9.35;;;5.72;;
68987;SDS011;56038;46.080;11.116;2023-02-05T23:20:49;7.38;;;5.65;;
68987;SDS011;56038;46.080;11.116;2023-02-05T23:25:53;6.65;;;5.13;;
68987;SDS011;56038;46.080;11.116;2023-02-05T23:30:55;7.05;;;4.90;;
68987;SDS011;56038;46.080;11.116;2023-02-05T23:35:56;9.02;;;5.95;;
68987;SDS011;56038;46.080;11.116;2023-02-05T23:41:00;7.82;;;5.95;;
68987;SDS011;56038;46.080;11.116;2023-02-05T23:46:03;7.80;;;5.40;;
68987;SDS011;56038;46.080;11.116;2023-02-05T23:51:06;10.02;;;5.03;;
68987;SDS011;56038;46.080;11.116;2023-02-05T23:56:10;6.53;;;4.65;;
